createdAt,value
2017-05-07T00:00:44.353Z,89.73
2017-05-07T00:01:45.777Z,89.73
2017-05-07T00:02:47.197Z,89.45
2017-05-07T00:03:48.629Z,89.35
2017-05-07T00:04:50.058Z,90.02
2017-05-07T00:05:51.484Z,89.64
2017-05-07T00:06:52.908Z,90.02
2017-05-07T00:07:54.335Z,89.35
2017-05-07T00:08:55.768Z,89.64
2017-05-07T00:09:57.189Z,90.21
2017-05-07T00:10:58.615Z,89.92
2017-05-07T00:12:00.052Z,89.54
2017-05-07T00:13:01.487Z,89.64
2017-05-07T00:14:02.906Z,89.25
2017-05-07T00:15:04.433Z,90.11
2017-05-07T00:16:05.879Z,89.64
2017-05-07T00:17:07.308Z,89.35
2017-05-07T00:18:08.732Z,89.16
2017-05-07T00:19:10.163Z,89.54
2017-05-07T00:20:11.591Z,88.97
2017-05-07T00:21:13.038Z,89.25
2017-05-07T00:22:14.470Z,89.25
2017-05-07T00:23:15.942Z,89.64
2017-05-07T00:24:17.375Z,89.83
2017-05-07T00:25:18.800Z,88.97
2017-05-07T00:26:20.291Z,90.02
2017-05-07T00:27:21.735Z,89.45
2017-05-07T00:28:23.153Z,89.25
2017-05-07T00:29:24.581Z,89.25
2017-05-07T00:30:26.011Z,88.87
2017-05-07T00:31:27.442Z,89.45
2017-05-07T00:32:28.871Z,88.97
2017-05-07T00:33:30.352Z,88.97
2017-05-07T00:34:31.783Z,88.78
2017-05-07T00:35:33.209Z,89.45
2017-05-07T00:36:34.627Z,88.78
2017-05-07T00:37:36.056Z,89.45
2017-05-07T00:38:37.480Z,88.97
2017-05-07T00:39:38.907Z,89.35
2017-05-07T00:40:40.333Z,88.87
2017-05-07T00:41:41.762Z,88.20
2017-05-07T00:42:43.197Z,88.49
2017-05-07T00:43:44.622Z,88.87
2017-05-07T00:44:46.051Z,89.25
2017-05-07T00:45:47.477Z,89.45
2017-05-07T00:46:48.912Z,88.97
2017-05-07T00:47:50.333Z,88.30
2017-05-07T00:48:51.765Z,88.59
2017-05-07T00:49:53.195Z,89.54
2017-05-07T00:50:54.622Z,89.45
2017-05-07T00:51:56.041Z,89.35
2017-05-07T00:52:57.460Z,88.68
2017-05-07T00:53:58.889Z,88.68
2017-05-07T00:55:00.310Z,88.78
2017-05-07T00:56:01.737Z,88.49
2017-05-07T00:57:03.162Z,88.68
2017-05-07T00:58:04.587Z,89.35
2017-05-07T00:59:06.014Z,88.87
2017-05-07T01:00:07.439Z,88.78
2017-05-07T01:01:08.861Z,88.20
2017-05-07T01:02:10.302Z,88.30
2017-05-07T01:03:11.732Z,88.49
2017-05-07T01:04:13.152Z,88.30
2017-05-07T01:05:14.583Z,89.54
2017-05-07T01:06:16.007Z,89.69
2017-05-07T01:07:17.432Z,90.40
2017-05-07T01:08:18.853Z,90.02
2017-05-07T01:09:20.274Z,89.31
2017-05-07T01:10:21.706Z,90.17
2017-05-07T01:11:23.138Z,89.40
2017-05-07T01:12:24.560Z,89.45
2017-05-07T01:13:25.984Z,89.73
2017-05-07T01:14:27.413Z,89.16
2017-05-07T01:15:28.840Z,89.25
2017-05-07T01:16:30.258Z,89.25
2017-05-07T01:17:31.696Z,89.40
2017-05-07T01:18:33.117Z,89.78
2017-05-07T01:19:34.541Z,89.59
2017-05-07T01:20:35.963Z,89.21
2017-05-07T01:21:37.386Z,88.64
2017-05-07T01:22:38.814Z,89.12
2017-05-07T01:23:40.245Z,89.59
2017-05-07T01:24:41.668Z,89.97
2017-05-07T01:25:43.090Z,89.31
2017-05-07T01:26:44.529Z,89.50
2017-05-07T01:27:46.002Z,89.88
2017-05-07T01:28:47.421Z,89.21
2017-05-07T01:29:48.855Z,88.92
2017-05-07T01:30:50.271Z,89.21
2017-05-07T01:31:51.729Z,89.21
2017-05-07T01:32:53.157Z,89.50
2017-05-07T01:33:54.589Z,89.50
2017-05-07T01:34:56.017Z,89.21
2017-05-07T01:35:57.478Z,90.36
2017-05-07T01:36:58.897Z,90.17
2017-05-07T01:38:00.340Z,89.97
2017-05-07T01:39:01.759Z,90.26
2017-05-07T01:40:03.179Z,89.97
2017-05-07T01:41:04.610Z,89.50
2017-05-07T01:42:06.030Z,89.78
2017-05-07T01:43:07.459Z,89.40
2017-05-07T01:44:08.888Z,90.17
2017-05-07T01:45:10.308Z,89.83
2017-05-07T01:46:11.735Z,88.92
2017-05-07T01:47:13.166Z,88.54
2017-05-07T01:48:14.590Z,88.59
2017-05-07T01:49:16.011Z,88.69
2017-05-07T01:50:17.435Z,88.31
2017-05-07T01:51:18.857Z,88.31
2017-05-07T01:52:20.281Z,89.45
2017-05-07T01:53:21.702Z,90.17
2017-05-07T01:54:23.128Z,91.17
2017-05-07T01:55:24.550Z,91.13
2017-05-07T01:56:25.973Z,90.79
2017-05-07T01:57:27.396Z,90.74
2017-05-07T01:58:28.823Z,91.60
2017-05-07T01:59:30.243Z,91.98
2017-05-07T02:00:31.666Z,93.08
2017-05-07T02:01:33.094Z,93.46
2017-05-07T02:02:34.515Z,91.60
2017-05-07T02:03:35.936Z,90.64
2017-05-07T02:04:37.354Z,89.45
2017-05-07T02:05:38.778Z,88.31
2017-05-07T02:06:40.208Z,88.12
2017-05-07T02:07:41.636Z,89.22
2017-05-07T02:08:43.059Z,88.98
2017-05-07T02:09:44.476Z,88.69
2017-05-07T02:10:45.894Z,88.59
2017-05-07T02:11:47.316Z,89.12
2017-05-07T02:12:48.748Z,91.13
2017-05-07T02:13:50.175Z,91.69
2017-05-07T02:14:51.599Z,91.98
2017-05-07T02:15:53.025Z,91.79
2017-05-07T02:16:54.447Z,91.79
2017-05-07T02:17:55.867Z,91.31
2017-05-07T02:18:57.299Z,91.60
2017-05-07T02:19:58.713Z,91.69
2017-05-07T02:21:00.141Z,91.88
2017-05-07T02:22:01.558Z,92.17
2017-05-07T02:23:02.985Z,92.46
2017-05-07T02:24:04.409Z,91.98
2017-05-07T02:25:05.850Z,92.46
2017-05-07T02:26:07.280Z,92.03
2017-05-07T02:27:08.699Z,91.55
2017-05-07T02:28:10.131Z,91.55
2017-05-07T02:29:11.631Z,91.27
2017-05-07T02:30:13.061Z,91.07
2017-05-07T02:31:14.478Z,91.17
2017-05-07T02:32:15.904Z,91.64
2017-05-07T02:33:17.326Z,92.03
2017-05-07T02:34:18.761Z,91.79
2017-05-07T02:35:20.200Z,92.36
2017-05-07T02:36:21.696Z,93.22
2017-05-07T02:37:23.122Z,93.98
2017-05-07T02:38:24.538Z,93.79
2017-05-07T02:39:26.039Z,93.51
2017-05-07T02:40:27.477Z,92.88
2017-05-07T02:41:28.906Z,92.32
2017-05-07T02:42:30.330Z,92.74
2017-05-07T02:43:31.848Z,93.88
2017-05-07T02:44:33.277Z,94.17
2017-05-07T02:45:34.703Z,94.74
2017-05-07T02:46:36.126Z,94.27
2017-05-07T02:47:37.552Z,93.41
2017-05-07T02:48:38.978Z,92.74
2017-05-07T02:49:40.402Z,92.46
2017-05-07T02:50:41.823Z,93.32
2017-05-07T02:51:43.243Z,94.37
2017-05-07T02:52:44.670Z,94.46
2017-05-07T02:53:46.091Z,93.98
2017-05-07T02:54:47.513Z,93.27
2017-05-07T02:55:48.948Z,93.84
2017-05-07T02:56:50.368Z,93.70
2017-05-07T02:57:51.787Z,92.74
2017-05-07T02:58:53.211Z,92.41
2017-05-07T02:59:54.631Z,92.84
2017-05-07T03:00:56.051Z,92.55
2017-05-07T03:01:57.478Z,92.36
2017-05-07T03:02:58.895Z,92.74
2017-05-07T03:04:00.329Z,92.69
2017-05-07T03:05:01.752Z,92.27
2017-05-07T03:06:03.177Z,91.13
2017-05-07T03:07:04.596Z,91.13
2017-05-07T03:08:06.018Z,91.03
2017-05-07T03:09:07.451Z,91.88
2017-05-07T03:10:08.877Z,91.65
2017-05-07T03:11:10.310Z,92.41
2017-05-07T03:12:11.738Z,92.41
2017-05-07T03:13:13.157Z,93.93
2017-05-07T03:14:14.585Z,93.93
2017-05-07T03:15:16.010Z,93.46
2017-05-07T03:16:17.435Z,93.84
2017-05-07T03:17:18.863Z,93.46
2017-05-07T03:18:20.287Z,92.69
2017-05-07T03:19:21.716Z,91.08
2017-05-07T03:20:23.141Z,90.26
2017-05-07T03:21:24.568Z,88.93
2017-05-07T03:22:25.986Z,89.17
2017-05-07T03:23:27.413Z,90.70
2017-05-07T03:24:28.834Z,91.17
2017-05-07T03:25:30.257Z,92.03
2017-05-07T03:26:31.679Z,91.55
2017-05-07T03:27:33.111Z,90.31
2017-05-07T03:28:34.543Z,89.31
2017-05-07T03:29:35.965Z,89.36
2017-05-07T03:30:37.391Z,89.31
2017-05-07T03:31:38.816Z,89.12
2017-05-07T03:32:40.248Z,88.55
2017-05-07T03:33:41.675Z,88.17
2017-05-07T03:34:43.105Z,88.74
2017-05-07T03:35:44.529Z,88.45
2017-05-07T03:36:45.951Z,89.12
2017-05-07T03:37:47.382Z,89.55
2017-05-07T03:38:48.822Z,90.60
2017-05-07T03:39:50.253Z,90.89
2017-05-07T03:40:51.682Z,90.41
2017-05-07T03:41:53.108Z,88.41
2017-05-07T03:42:54.539Z,88.64
2017-05-07T03:43:55.963Z,88.93
2017-05-07T03:44:57.390Z,88.55
2017-05-07T03:45:58.830Z,89.03
2017-05-07T03:47:00.257Z,88.93
2017-05-07T03:48:01.691Z,88.51
2017-05-07T03:49:03.122Z,89.17
2017-05-07T03:50:04.549Z,89.41
2017-05-07T03:51:05.983Z,89.03
2017-05-07T03:52:07.414Z,89.07
2017-05-07T03:53:08.836Z,89.13
2017-05-07T03:54:10.264Z,89.51
2017-05-07T03:55:11.687Z,89.75
2017-05-07T03:56:13.114Z,90.99
2017-05-07T03:57:14.539Z,91.94
2017-05-07T03:58:15.968Z,91.17
2017-05-07T03:59:17.388Z,92.79
2017-05-07T04:00:18.821Z,92.03
2017-05-07T04:01:20.246Z,89.94
2017-05-07T04:02:21.679Z,89.47
2017-05-07T04:03:23.104Z,88.51
2017-05-07T04:04:24.531Z,89.41
2017-05-07T04:05:25.970Z,89.13
2017-05-07T04:06:27.393Z,89.98
2017-05-07T04:07:28.819Z,91.13
2017-05-07T04:08:30.243Z,90.94
2017-05-07T04:09:31.672Z,90.56
2017-05-07T04:10:33.104Z,90.08
2017-05-07T04:11:34.537Z,90.17
2017-05-07T04:12:35.962Z,89.89
2017-05-07T04:13:37.386Z,89.70
2017-05-07T04:14:38.811Z,89.70
2017-05-07T04:15:40.245Z,91.03
2017-05-07T04:16:41.670Z,91.13
2017-05-07T04:17:43.097Z,92.22
2017-05-07T04:18:44.535Z,93.37
2017-05-07T04:19:45.962Z,93.65
2017-05-07T04:20:47.391Z,93.55
2017-05-07T04:21:48.825Z,93.74
2017-05-07T04:22:50.251Z,94.42
2017-05-07T04:23:51.676Z,94.13
2017-05-07T04:24:53.106Z,94.03
2017-05-07T04:25:54.524Z,94.03
2017-05-07T04:26:56.553Z,93.55
2017-05-07T04:27:58.544Z,93.65
2017-05-07T04:28:59.975Z,94.13
2017-05-07T04:30:01.402Z,94.13
2017-05-07T04:31:02.830Z,94.13
2017-05-07T04:32:04.255Z,94.32
2017-05-07T04:33:05.691Z,94.51
2017-05-07T04:34:07.113Z,95.60
2017-05-07T04:35:08.543Z,96.31
2017-05-07T04:36:09.979Z,96.55
2017-05-07T04:37:11.406Z,96.41
2017-05-07T04:38:12.832Z,96.03
2017-05-07T04:39:14.266Z,96.98
2017-05-07T04:40:15.692Z,97.08
2017-05-07T04:41:17.118Z,96.79
2017-05-07T04:42:18.585Z,95.84
2017-05-07T04:43:19.988Z,95.51
2017-05-07T04:44:21.421Z,94.74
2017-05-07T04:45:22.848Z,94.03
2017-05-07T04:46:24.278Z,94.51
2017-05-07T04:47:25.717Z,94.60
2017-05-07T04:48:27.133Z,95.36
2017-05-07T04:49:28.558Z,94.51
2017-05-07T04:50:29.982Z,94.03
2017-05-07T04:51:31.414Z,94.42
2017-05-07T04:52:32.835Z,94.51
2017-05-07T04:53:34.261Z,94.89
2017-05-07T04:54:35.727Z,94.56
2017-05-07T04:55:37.152Z,94.03
2017-05-07T04:56:38.583Z,94.70
2017-05-07T04:57:40.020Z,95.17
2017-05-07T04:58:41.450Z,94.60
2017-05-07T04:59:42.873Z,94.42
2017-05-07T05:00:44.304Z,94.17
2017-05-07T05:01:45.730Z,94.56
2017-05-07T05:02:47.156Z,94.17
2017-05-07T05:03:48.583Z,94.08
2017-05-07T05:04:50.016Z,93.51
2017-05-07T05:05:51.447Z,92.74
2017-05-07T05:06:52.877Z,92.74
2017-05-07T05:07:54.306Z,93.51
2017-05-07T05:08:55.751Z,93.41
2017-05-07T05:09:57.176Z,93.60
2017-05-07T05:10:58.602Z,92.41
2017-05-07T05:12:00.033Z,91.74
2017-05-07T05:13:01.465Z,91.08
2017-05-07T05:14:02.890Z,91.17
2017-05-07T05:15:04.315Z,91.08
2017-05-07T05:16:05.742Z,90.70
2017-05-07T05:17:07.172Z,92.03
2017-05-07T05:18:08.598Z,92.46
2017-05-07T05:19:10.025Z,93.51
2017-05-07T05:20:11.449Z,93.55
2017-05-07T05:21:12.878Z,93.55
2017-05-07T05:22:14.310Z,93.74
2017-05-07T05:23:15.738Z,94.13
2017-05-07T05:24:17.175Z,93.55
2017-05-07T05:25:18.604Z,93.55
2017-05-07T05:26:20.033Z,92.69
2017-05-07T05:27:21.461Z,91.22
2017-05-07T05:28:22.895Z,91.08
2017-05-07T05:29:24.324Z,92.13
2017-05-07T05:30:25.749Z,92.89
2017-05-07T05:31:27.194Z,93.17
2017-05-07T05:32:28.619Z,92.60
2017-05-07T05:33:30.046Z,93.65
2017-05-07T05:34:31.472Z,93.65
2017-05-07T05:35:32.901Z,94.22
2017-05-07T05:36:34.327Z,94.51
2017-05-07T05:37:35.765Z,94.70
2017-05-07T05:38:37.189Z,94.60
2017-05-07T05:39:38.620Z,94.13
2017-05-07T05:40:40.052Z,94.51
2017-05-07T05:41:41.473Z,94.03
2017-05-07T05:42:42.904Z,93.32
2017-05-07T05:43:44.333Z,92.74
2017-05-07T05:44:45.761Z,93.12
2017-05-07T05:45:47.194Z,93.41
2017-05-07T05:46:48.623Z,93.88
2017-05-07T05:47:50.053Z,93.79
2017-05-07T05:48:51.487Z,93.98
2017-05-07T05:49:52.910Z,93.41
2017-05-07T05:50:54.336Z,93.51
2017-05-07T05:51:55.777Z,93.51
2017-05-07T05:52:57.195Z,92.74
2017-05-07T05:53:58.626Z,92.12
2017-05-07T05:55:00.753Z,91.74
2017-05-07T05:56:02.176Z,91.74
2017-05-07T05:57:03.611Z,91.83
2017-05-07T05:58:05.040Z,91.88
2017-05-07T05:59:06.464Z,92.17
2017-05-07T06:00:07.885Z,92.46
2017-05-07T06:01:09.326Z,94.07
2017-05-07T06:02:10.757Z,93.70
2017-05-07T06:03:12.190Z,93.60
2017-05-07T06:04:13.619Z,93.98
2017-05-07T06:05:15.065Z,93.79
2017-05-07T06:06:16.493Z,94.27
2017-05-07T06:07:17.919Z,94.74
2017-05-07T06:08:19.355Z,94.07
2017-05-07T06:09:20.778Z,94.60
2017-05-07T06:10:22.207Z,95.12
2017-05-07T06:11:23.644Z,94.93
2017-05-07T06:12:25.074Z,94.65
2017-05-07T06:13:26.501Z,94.89
2017-05-07T06:14:27.934Z,94.98
2017-05-07T06:15:29.367Z,94.70
2017-05-07T06:16:30.791Z,95.56
2017-05-07T06:17:32.237Z,95.22
2017-05-07T06:18:33.666Z,94.07
2017-05-07T06:19:35.097Z,93.70
2017-05-07T06:20:36.530Z,93.41
2017-05-07T06:21:37.957Z,93.41
2017-05-07T06:22:39.331Z,94.17
2017-05-07T06:23:40.778Z,93.98
2017-05-07T06:24:42.216Z,94.12
2017-05-07T06:25:43.648Z,93.41
2017-05-07T06:26:45.088Z,94.07
2017-05-07T06:27:46.517Z,94.03
2017-05-07T06:28:47.948Z,92.88
2017-05-07T06:29:49.378Z,92.88
2017-05-07T06:30:50.802Z,93.07
2017-05-07T06:31:52.729Z,92.88
2017-05-07T06:32:54.069Z,92.60
2017-05-07T06:33:55.493Z,92.31
2017-05-07T06:34:56.924Z,91.93
2017-05-07T06:35:58.362Z,92.60
2017-05-07T06:36:59.799Z,92.60
2017-05-07T06:38:01.237Z,91.74
2017-05-07T06:39:02.663Z,90.64
2017-05-07T06:40:04.102Z,91.64
2017-05-07T06:41:05.546Z,92.50
2017-05-07T06:42:06.976Z,92.88
2017-05-07T06:43:08.408Z,91.55
2017-05-07T06:44:09.842Z,91.45
2017-05-07T06:45:11.398Z,90.83
2017-05-07T06:46:12.822Z,89.97
2017-05-07T06:47:14.255Z,89.01
2017-05-07T06:48:15.680Z,90.06
2017-05-07T06:49:17.113Z,91.69
2017-05-07T06:50:18.545Z,90.73
2017-05-07T06:51:19.985Z,90.06
2017-05-07T06:52:21.420Z,90.45
2017-05-07T06:53:22.846Z,88.82
2017-05-07T06:54:24.276Z,89.11
2017-05-07T06:55:25.706Z,88.58
2017-05-07T06:56:27.131Z,88.58
2017-05-07T06:57:28.567Z,89.25
2017-05-07T06:58:30.003Z,88.58
2017-05-07T06:59:31.445Z,87.91
2017-05-07T07:00:32.877Z,87.43
2017-05-07T07:01:34.313Z,88.77
2017-05-07T07:02:35.748Z,88.77
2017-05-07T07:03:37.181Z,88.48
2017-05-07T07:04:38.615Z,89.59
2017-05-07T07:05:40.043Z,90.06
2017-05-07T07:06:41.477Z,89.34
2017-05-07T07:07:42.923Z,89.49
2017-05-07T07:08:44.358Z,89.06
2017-05-07T07:09:45.794Z,89.53
2017-05-07T07:10:47.230Z,90.01
2017-05-07T07:11:48.661Z,90.83
2017-05-07T07:12:50.097Z,90.45
2017-05-07T07:13:51.526Z,90.73
2017-05-07T07:14:52.957Z,90.35
2017-05-07T07:15:54.430Z,89.49
2017-05-07T07:16:55.861Z,88.48
2017-05-07T07:17:57.299Z,88.58
2017-05-07T07:18:58.736Z,87.24
2017-05-07T07:20:00.170Z,87.05
2017-05-07T07:21:01.602Z,87.15
2017-05-07T07:22:03.034Z,88.48
2017-05-07T07:23:04.465Z,88.58
2017-05-07T07:24:05.898Z,88.58
2017-05-07T07:25:07.332Z,88.20
2017-05-07T07:26:08.767Z,88.29
2017-05-07T07:27:10.207Z,88.29
2017-05-07T07:28:11.646Z,87.72
2017-05-07T07:29:13.082Z,87.72
2017-05-07T07:30:14.519Z,87.53
2017-05-07T07:31:15.956Z,88.39
2017-05-07T07:32:17.394Z,89.01
2017-05-07T07:33:18.829Z,89.01
2017-05-07T07:34:20.261Z,89.11
2017-05-07T07:35:21.696Z,89.44
2017-05-07T07:36:23.137Z,89.25
2017-05-07T07:37:24.567Z,89.25
2017-05-07T07:38:26.000Z,89.44
2017-05-07T07:39:27.431Z,88.96
2017-05-07T07:40:28.862Z,89.63
2017-05-07T07:41:30.299Z,88.68
2017-05-07T07:42:31.734Z,89.44
2017-05-07T07:43:33.170Z,88.68
2017-05-07T07:44:34.603Z,88.87
2017-05-07T07:45:36.034Z,88.77
2017-05-07T07:46:37.477Z,88.20
2017-05-07T07:47:38.915Z,88.87
2017-05-07T07:48:40.350Z,88.96
2017-05-07T07:49:41.790Z,88.58
2017-05-07T07:50:43.211Z,89.06
2017-05-07T07:51:44.659Z,89.25
2017-05-07T07:52:46.099Z,88.68
2017-05-07T07:53:47.540Z,88.72
2017-05-07T07:54:48.982Z,88.72
2017-05-07T07:55:50.417Z,89.39
2017-05-07T07:56:51.857Z,88.81
2017-05-07T07:57:53.305Z,88.24
2017-05-07T07:58:54.741Z,88.15
2017-05-07T07:59:56.179Z,88.15
2017-05-07T08:00:57.631Z,88.53
2017-05-07T08:01:59.069Z,88.58
2017-05-07T08:03:00.501Z,88.96
2017-05-07T08:04:01.945Z,88.48
2017-05-07T08:05:03.377Z,88.96
2017-05-07T08:06:04.817Z,88.01
2017-05-07T08:07:06.249Z,88.58
2017-05-07T08:08:07.678Z,88.39
2017-05-07T08:09:09.120Z,88.01
2017-05-07T08:10:10.552Z,89.34
2017-05-07T08:11:11.990Z,89.25
2017-05-07T08:12:13.431Z,88.43
2017-05-07T08:13:14.865Z,87.19
2017-05-07T08:14:16.306Z,86.43
2017-05-07T08:15:17.828Z,86.04
2017-05-07T08:16:19.271Z,85.28
2017-05-07T08:17:20.707Z,86.23
2017-05-07T08:18:22.147Z,87.09
2017-05-07T08:19:23.587Z,86.18
2017-05-07T08:20:25.027Z,87.09
2017-05-07T08:21:26.465Z,86.14
2017-05-07T08:22:27.896Z,87.09
2017-05-07T08:23:29.338Z,87.09
2017-05-07T08:24:30.776Z,86.23
2017-05-07T08:25:32.206Z,86.43
2017-05-07T08:26:33.643Z,86.61
2017-05-07T08:27:35.078Z,85.51
2017-05-07T08:28:36.509Z,85.32
2017-05-07T08:29:37.941Z,84.65
2017-05-07T08:30:39.377Z,84.27
2017-05-07T08:31:40.818Z,84.17
2017-05-07T08:32:42.285Z,83.31
2017-05-07T08:33:43.724Z,84.36
2017-05-07T08:34:45.170Z,84.17
2017-05-07T08:35:46.606Z,83.98
2017-05-07T08:36:48.049Z,83.69
2017-05-07T08:37:49.482Z,84.65
2017-05-07T08:38:50.918Z,84.75
2017-05-07T08:39:52.362Z,83.89
2017-05-07T08:40:53.841Z,84.94
2017-05-07T08:41:55.279Z,83.73
2017-05-07T08:42:56.712Z,84.12
2017-05-07T08:43:58.256Z,84.79
2017-05-07T08:44:59.701Z,83.89
2017-05-07T08:46:01.143Z,83.26
2017-05-07T08:47:02.591Z,83.16
2017-05-07T08:48:04.029Z,82.73
2017-05-07T08:49:05.463Z,81.48
2017-05-07T08:50:06.905Z,83.16
2017-05-07T08:51:08.373Z,83.20
2017-05-07T08:52:09.813Z,82.43
2017-05-07T08:53:11.269Z,81.00
2017-05-07T08:54:12.706Z,81.13
2017-05-07T08:55:14.145Z,81.29
2017-05-07T08:56:15.577Z,81.29
2017-05-07T08:57:17.025Z,81.96
2017-05-07T08:58:18.455Z,81.10
2017-05-07T08:59:19.895Z,81.57
2017-05-07T09:00:21.332Z,82.59
2017-05-07T09:01:22.769Z,83.54
2017-05-07T09:02:24.206Z,83.87
2017-05-07T09:03:25.637Z,83.30
2017-05-07T09:04:27.071Z,83.68
2017-05-07T09:05:28.510Z,83.20
2017-05-07T09:06:30.112Z,83.01
2017-05-07T09:07:31.541Z,82.24
2017-05-07T09:08:32.980Z,82.24
2017-05-07T09:09:34.545Z,83.26
2017-05-07T09:10:35.979Z,84.02
2017-05-07T09:11:37.421Z,84.31
2017-05-07T09:12:38.855Z,84.35
2017-05-07T09:13:40.299Z,83.97
2017-05-07T09:14:41.745Z,83.30
2017-05-07T09:15:43.175Z,83.30
2017-05-07T09:16:44.623Z,83.01
2017-05-07T09:17:46.072Z,83.30
2017-05-07T09:18:47.506Z,83.11
2017-05-07T09:19:49.570Z,83.11
2017-05-07T09:20:51.004Z,82.53
2017-05-07T09:21:52.437Z,83.30
2017-05-07T09:22:53.876Z,81.96
2017-05-07T09:23:55.316Z,81.43
2017-05-07T09:24:56.746Z,81.81
2017-05-07T09:25:58.189Z,81.81
2017-05-07T09:26:59.623Z,82.19
2017-05-07T09:28:01.058Z,81.81
2017-05-07T09:29:02.494Z,80.76
2017-05-07T09:30:03.932Z,80.76
2017-05-07T09:31:05.361Z,81.08
2017-05-07T09:32:06.796Z,80.79
2017-05-07T09:33:08.231Z,79.93
2017-05-07T09:34:09.669Z,79.11
2017-05-07T09:35:11.102Z,78.67
2017-05-07T09:36:13.088Z,76.84
2017-05-07T09:37:14.509Z,78.09
2017-05-07T09:38:15.957Z,77.13
2017-05-07T09:39:17.389Z,78.09
2017-05-07T09:40:18.827Z,75.98
2017-05-07T09:41:20.260Z,75.50
2017-05-07T09:42:21.686Z,77.13
2017-05-07T09:43:23.256Z,76.65
2017-05-07T09:44:24.690Z,77.61
2017-05-07T09:45:26.122Z,78.28
2017-05-07T09:46:27.558Z,77.23
2017-05-07T09:47:28.998Z,76.07
2017-05-07T09:48:30.432Z,75.70
2017-05-07T09:49:31.875Z,76.37
2017-05-07T09:50:33.319Z,74.96
2017-05-07T09:51:34.763Z,75.73
2017-05-07T09:52:36.199Z,76.02
2017-05-07T09:53:37.635Z,75.92
2017-05-07T09:54:39.083Z,75.45
2017-05-07T09:55:40.519Z,73.91
2017-05-07T09:56:41.960Z,74.39
2017-05-07T09:57:43.392Z,75.25
2017-05-07T09:58:44.837Z,76.40
2017-05-07T09:59:46.271Z,76.12
2017-05-07T10:00:47.706Z,78.38
2017-05-07T10:01:49.147Z,78.25
2017-05-07T10:02:50.595Z,77.33
2017-05-07T10:03:52.031Z,77.13
2017-05-07T10:04:53.473Z,77.95
2017-05-07T10:05:54.911Z,78.44
2017-05-07T10:06:56.367Z,78.28
2017-05-07T10:07:57.790Z,78.77
2017-05-07T10:08:59.222Z,77.61
2017-05-07T10:10:00.665Z,76.17
2017-05-07T10:11:02.106Z,76.65
2017-05-07T10:12:03.545Z,75.98
2017-05-07T10:13:04.984Z,76.37
2017-05-07T10:14:06.417Z,76.79
2017-05-07T10:15:07.853Z,77.61
2017-05-07T10:16:09.286Z,77.23
2017-05-07T10:17:10.723Z,77.23
2017-05-07T10:18:12.157Z,75.79
2017-05-07T10:19:13.602Z,76.59
2017-05-07T10:20:15.045Z,76.88
2017-05-07T10:21:16.473Z,75.70
2017-05-07T10:22:17.905Z,75.89
2017-05-07T10:23:19.353Z,75.70
2017-05-07T10:24:20.782Z,76.07
2017-05-07T10:25:22.222Z,75.98
2017-05-07T10:26:23.666Z,76.75
2017-05-07T10:27:25.104Z,76.37
2017-05-07T10:28:26.542Z,76.07
2017-05-07T10:29:27.992Z,75.98
2017-05-07T10:30:29.436Z,74.35
2017-05-07T10:31:30.871Z,74.73
2017-05-07T10:32:32.313Z,75.12
2017-05-07T10:33:33.748Z,75.45
2017-05-07T10:34:35.193Z,75.15
2017-05-07T10:35:36.642Z,74.04
2017-05-07T10:36:38.086Z,73.08
2017-05-07T10:37:39.523Z,73.27
2017-05-07T10:38:40.963Z,72.50
2017-05-07T10:39:42.413Z,73.85
2017-05-07T10:40:43.880Z,72.34
2017-05-07T10:41:45.317Z,71.39
2017-05-07T10:42:46.754Z,71.19
2017-05-07T10:43:48.194Z,71.19
2017-05-07T10:44:49.636Z,70.52
2017-05-07T10:45:51.081Z,71.58
2017-05-07T10:46:52.516Z,70.43
2017-05-07T10:47:53.960Z,71.45
2017-05-07T10:48:55.410Z,72.64
2017-05-07T10:49:56.836Z,72.34
2017-05-07T10:50:58.369Z,72.22
2017-05-07T10:51:59.805Z,72.34
2017-05-07T10:53:01.240Z,71.19
2017-05-07T10:54:02.674Z,70.72
2017-05-07T10:55:04.116Z,69.02
2017-05-07T10:56:05.548Z,70.65
2017-05-07T10:57:06.984Z,70.84
2017-05-07T10:58:08.432Z,69.98
2017-05-07T10:59:09.885Z,70.62
2017-05-07T11:00:11.324Z,72.73
2017-05-07T11:01:12.758Z,72.12
2017-05-07T11:02:14.202Z,72.89
2017-05-07T11:03:15.642Z,72.22
2017-05-07T11:04:17.072Z,73.21
2017-05-07T11:05:18.513Z,72.16
2017-05-07T11:06:19.957Z,73.31
2017-05-07T11:07:21.403Z,74.33
2017-05-07T11:08:22.841Z,74.39
2017-05-07T11:09:24.280Z,76.12
2017-05-07T11:10:25.719Z,75.35
2017-05-07T11:11:27.157Z,76.02
2017-05-07T11:12:28.588Z,76.75
2017-05-07T11:13:30.036Z,77.71
2017-05-07T11:14:31.472Z,76.59
2017-05-07T11:15:32.915Z,77.33
2017-05-07T11:16:34.397Z,77.80
2017-05-07T11:17:35.846Z,76.88
2017-05-07T11:18:37.286Z,76.94
2017-05-07T11:19:38.722Z,75.45
2017-05-07T11:20:40.201Z,74.13
2017-05-07T11:21:41.633Z,73.18
2017-05-07T11:22:43.086Z,72.25
2017-05-07T11:23:44.521Z,71.77
2017-05-07T11:24:45.962Z,72.31
2017-05-07T11:25:47.406Z,72.25
2017-05-07T11:26:48.889Z,70.62
2017-05-07T11:27:50.325Z,70.56
2017-05-07T11:28:51.762Z,70.27
2017-05-07T11:29:53.194Z,69.31
2017-05-07T11:30:54.632Z,67.26
2017-05-07T11:31:56.070Z,66.84
2017-05-07T11:32:57.515Z,67.13
2017-05-07T11:33:58.953Z,66.78
2017-05-07T11:35:00.396Z,66.65
2017-05-07T11:36:01.842Z,66.61
2017-05-07T11:37:03.280Z,69.40
2017-05-07T11:38:04.723Z,69.85
2017-05-07T11:39:06.163Z,71.16
2017-05-07T11:40:07.607Z,72.99
2017-05-07T11:41:09.052Z,72.31
2017-05-07T11:42:10.490Z,71.55
2017-05-07T11:43:11.934Z,70.78
2017-05-07T11:44:13.381Z,70.23
2017-05-07T11:45:14.823Z,69.62
2017-05-07T11:46:16.278Z,69.08
2017-05-07T11:47:17.721Z,69.43
2017-05-07T11:48:19.158Z,70.20
2017-05-07T11:49:20.603Z,69.66
2017-05-07T11:50:22.045Z,69.66
2017-05-07T11:51:23.485Z,69.37
2017-05-07T11:52:24.923Z,69.18
2017-05-07T11:53:26.367Z,68.60
2017-05-07T11:54:27.842Z,68.60
2017-05-07T11:55:29.279Z,68.44
2017-05-07T11:56:30.715Z,67.68
2017-05-07T11:57:32.151Z,65.50
2017-05-07T11:58:33.595Z,64.53
2017-05-07T11:59:35.039Z,63.92
2017-05-07T12:00:36.469Z,62.83
2017-05-07T12:01:37.971Z,62.32
2017-05-07T12:02:39.409Z,63.67
2017-05-07T12:03:40.860Z,66.07
2017-05-07T12:04:42.301Z,67.10
2017-05-07T12:05:44.644Z,68.41
2017-05-07T12:06:46.086Z,69.27
2017-05-07T12:07:47.532Z,68.98
2017-05-07T12:08:48.977Z,68.70
2017-05-07T12:09:50.419Z,67.45
2017-05-07T12:10:51.857Z,67.54
2017-05-07T12:11:53.295Z,66.91
2017-05-07T12:12:54.738Z,67.00
2017-05-07T12:13:56.778Z,66.46
2017-05-07T12:14:58.212Z,66.10
2017-05-07T12:15:59.660Z,65.40
2017-05-07T12:17:01.098Z,67.07
2017-05-07T12:18:02.541Z,65.81
2017-05-07T12:19:03.999Z,65.72
2017-05-07T12:20:05.431Z,66.01
2017-05-07T12:21:06.869Z,66.74
2017-05-07T12:22:08.304Z,65.56
2017-05-07T12:23:09.747Z,66.36
2017-05-07T12:24:11.196Z,66.65
2017-05-07T12:25:12.638Z,65.01
2017-05-07T12:26:14.079Z,65.62
2017-05-07T12:27:15.513Z,63.99
2017-05-07T12:28:16.960Z,63.95
2017-05-07T12:29:18.402Z,63.89
2017-05-07T12:30:19.831Z,63.99
2017-05-07T12:31:21.265Z,62.83
2017-05-07T12:32:22.714Z,62.00
2017-05-07T12:33:24.161Z,62.09
2017-05-07T12:34:25.594Z,61.29
2017-05-07T12:35:27.027Z,63.54
2017-05-07T12:36:28.462Z,62.41
2017-05-07T12:37:29.899Z,61.84
2017-05-07T12:38:31.332Z,63.41
2017-05-07T12:39:32.791Z,62.06
2017-05-07T12:40:34.230Z,59.78
2017-05-07T12:41:35.675Z,58.17
2017-05-07T12:42:37.110Z,58.65
2017-05-07T12:43:38.554Z,58.95
2017-05-07T12:44:39.994Z,57.31
2017-05-07T12:45:41.441Z,59.36
2017-05-07T12:46:42.882Z,56.35
2017-05-07T12:47:44.333Z,57.02
2017-05-07T12:48:45.767Z,57.67
2017-05-07T12:49:47.204Z,58.44
2017-05-07T12:50:48.644Z,56.51
2017-05-07T12:51:50.080Z,57.76
2017-05-07T12:52:51.520Z,60.42
2017-05-07T12:53:53.119Z,61.49
2017-05-07T12:54:54.560Z,60.33
2017-05-07T12:55:55.999Z,59.66
2017-05-07T12:56:57.448Z,59.11
2017-05-07T12:57:58.902Z,59.01
2017-05-07T12:59:00.344Z,59.23
2017-05-07T13:00:01.787Z,58.56
2017-05-07T13:01:03.229Z,60.55
2017-05-07T13:02:04.668Z,60.55
2017-05-07T13:03:06.103Z,60.75
2017-05-07T13:04:07.541Z,61.16
2017-05-07T13:05:08.973Z,61.55
2017-05-07T13:06:10.421Z,62.03
2017-05-07T13:07:11.868Z,61.49
2017-05-07T13:08:13.312Z,61.49
2017-05-07T13:09:14.743Z,59.78
2017-05-07T13:10:16.180Z,59.59
2017-05-07T13:11:17.640Z,59.52